Time;durP1;ratioP1;P1;durP2;ratioP2;P2;SDS_P1;SDS_P2;PMS_P1;PMS_P2;Temp;Humidity;BMP_temperature;BMP_pressure;BME280_temperature;BME280_humidity;BME280_pressure;Samples;Min_cycle;Max_cycle;Signal;HPM_P1;HPM_P2
2023/04/12 00:01:51;;;;;;;4.55;0.80;;;19.40;53.30;;;;;;5112538;28;20467;-63
2023/04/12 00:04:17;;;;;;;2.53;0.90;;;19.40;53.30;;;;;;5110931;28;20514;-63
2023/04/12 00:06:47;;;;;;;4.00;0.90;;;19.40;53.30;;;;;;5112773;28;20047;-63
2023/04/12 00:09:15;;;;;;;2.80;0.90;;;19.40;53.30;;;;;;5112412;28;20062;-63
2023/04/12 00:11:40;;;;;;;;;;;19.40;53.30;;;;;;5112125;28;20050;-63
2023/04/12 00:14:06;;;;;;;3.97;0.85;;;19.40;53.20;;;;;;5112637;28;19920;-63
2023/04/12 00:16:32;;;;;;;4.78;1.15;;;19.30;53.30;;;;;;5111383;28;20035;-63
2023/04/12 00:18:58;;;;;;;3.63;0.80;;;19.30;53.20;;;;;;5111286;28;20047;-63
2023/04/12 00:21:23;;;;;;;4.32;1.08;;;19.40;53.30;;;;;;5112203;28;20051;-63
2023/04/12 00:23:49;;;;;;;2.28;0.90;;;19.30;53.20;;;;;;5112675;28;20496;-63
2023/04/12 00:26:14;;;;;;;5.07;0.85;;;19.30;53.20;;;;;;5104306;28;20051;-63
2023/04/12 00:28:41;;;;;;;2.95;0.90;;;19.30;53.10;;;;;;5104298;28;20080;-63
2023/04/12 00:31:06;;;;;;;3.38;0.80;;;19.30;53.10;;;;;;5115465;28;20038;-63
2023/04/12 00:33:33;;;;;;;2.63;0.60;;;19.30;53.10;;;;;;5116209;28;20043;-63
2023/04/12 00:35:58;;;;;;;2.33;0.90;;;19.30;53.10;;;;;;5116157;28;20093;-63
2023/04/12 00:38:24;;;;;;;3.83;0.82;;;19.30;53.10;;;;;;5115100;28;20040;-63
2023/04/12 00:40:49;;;;;;;2.20;0.90;;;19.30;53.10;;;;;;5115366;28;20062;-63
2023/04/12 00:43:17;;;;;;;1.88;0.70;;;19.30;53.10;;;;;;5116319;28;20046;-63
2023/04/12 00:45:43;;;;;;;2.30;0.60;;;19.30;53.80;;;;;;5115957;28;20050;-64
2023/04/12 00:48:09;;;;;;;2.72;1.08;;;19.30;53.00;;;;;;5116145;28;20071;-64
2023/04/12 00:50:34;;;;;;;2.78;0.90;;;19.30;53.10;;;;;;5115515;28;20070;-63
2023/04/12 00:53:01;;;;;;;2.17;0.60;;;19.30;53.10;;;;;;5115460;28;20134;-64
2023/04/12 00:55:26;;;;;;;2.80;0.77;;;19.20;53.00;;;;;;5115219;28;20047;-64
2023/04/12 00:57:52;;;;;;;2.63;0.65;;;19.20;53.00;;;;;;5116251;28;20032;-63
2023/04/12 01:00:18;;;;;;;2.25;0.57;;;19.20;53.00;;;;;;5115227;28;20442;-64
2023/04/12 01:02:49;;;;;;;2.75;0.60;;;19.30;53.00;;;;;;5116504;28;20066;-64
2023/04/12 01:05:20;;;;;;;4.20;0.80;;;19.20;53.00;;;;;;5114741;28;20811;-63
2023/04/12 01:08:27;;;;;;;4.25;0.95;;;19.20;53.00;;;;;;5115580;28;20118;-63
2023/04/12 01:11:25;;;;;;;2.45;0.70;;;19.20;53.00;;;;;;5098545;28;20047;-63
2023/04/12 01:13:57;;;;;;;1.85;0.77;;;19.20;53.00;;;;;;5115528;28;20040;-63
2023/04/12 01:16:39;;;;;;;3.35;0.90;;;19.20;53.00;;;;;;5115072;28;20082;-63
2023/04/12 01:19:37;;;;;;;2.67;0.80;;;19.20;53.00;;;;;;5115438;28;20050;-63
2023/04/12 01:22:15;;;;;;;2.65;0.80;;;19.20;53.00;;;;;;5096594;28;20083;-63
2023/04/12 01:25:23;;;;;;;2.35;0.70;;;19.20;53.00;;;;;;5114760;28;20165;-63
2023/04/12 01:28:08;;;;;;;1.98;0.70;;;19.20;53.00;;;;;;5114149;28;20055;-63
2023/04/12 01:30:34;;;;;;;2.97;0.80;;;19.20;52.80;;;;;;5114667;28;20047;-62
2023/04/12 01:33:00;;;;;;;2.67;0.80;;;19.20;52.80;;;;;;5113906;28;20089;-62
2023/04/12 01:35:29;;;;;;;2.85;0.77;;;19.20;52.80;;;;;;5113605;28;20070;-63
2023/04/12 01:37:56;;;;;;;4.53;0.90;;;19.20;52.70;;;;;;5115357;28;20110;-63
2023/04/12 01:40:22;;;;;;;4.18;0.80;;;19.20;52.70;;;;;;5113335;28;20052;-63
2023/04/12 01:42:47;;;;;;;2.63;0.88;;;19.20;52.60;;;;;;5115005;28;20111;-63
2023/04/12 01:45:13;;;;;;;2.58;0.80;;;19.20;52.60;;;;;;5115164;28;20490;-63
2023/04/12 01:47:38;;;;;;;2.72;0.80;;;19.20;52.50;;;;;;5115524;28;20118;-63
2023/04/12 01:50:22;;;;;;;3.03;0.70;;;19.20;52.50;;;;;;5114236;28;20043;-63
2023/04/12 01:52:51;;;;;;;3.72;0.85;;;19.20;52.50;;;;;;5097359;28;20085;-63
2023/04/12 01:55:17;;;;;;;2.30;0.80;;;19.20;52.50;;;;;;5097178;28;20075;-63
2023/04/12 01:57:42;;;;;;;1.63;0.80;;;19.20;52.40;;;;;;5079725;28;20219;-63
2023/04/12 02:00:09;;;;;;;3.13;1.10;;;19.20;52.40;;;;;;5096516;28;20044;-62
2023/04/12 02:02:35;;;;;;;3.20;0.75;;;19.20;52.40;;;;;;5093940;28;20115;-63
2023/04/12 02:05:00;;;;;;;3.40;0.90;;;19.30;52.40;;;;;;5075651;28;20130;-63
2023/04/12 02:07:26;;;;;;;2.22;0.95;;;19.20;52.40;;;;;;5094632;28;20100;-63
2023/04/12 02:09:52;;;;;;;1.85;0.60;;;19.30;52.50;;;;;;5092580;28;20040;-63
2023/04/12 02:12:17;;;;;;;4.25;1.00;;;19.20;52.40;;;;;;5094310;28;20035;-64
2023/04/12 02:14:43;;;;;;;2.53;0.60;;;19.30;52.50;;;;;;5094359;28;20044;-63
2023/04/12 02:17:11;;;;;;;2.55;0.80;;;19.20;52.40;;;;;;5093380;28;20572;-63
2023/04/12 02:19:37;;;;;;;3.00;0.80;;;19.30;52.50;;;;;;5094016;28;20382;-63
2023/04/12 02:22:04;;;;;;;1.77;0.80;;;19.30;52.50;;;;;;5093963;28;20567;-63
2023/04/12 02:24:30;;;;;;;2.95;0.95;;;19.30;52.60;;;;;;5093621;28;20058;-63
2023/04/12 02:26:57;;;;;;;2.55;0.80;;;19.30;52.50;;;;;;5093728;28;20044;-63
2023/04/12 02:29:23;;;;;;;4.17;0.80;;;19.30;52.50;;;;;;5094464;28;20043;-63
2023/04/12 02:31:50;;;;;;;2.63;0.57;;;19.30;52.50;;;;;;5093614;28;20380;-64
2023/04/12 02:34:16;;;;;;;2.67;0.73;;;19.30;52.50;;;;;;5093646;28;20486;-63
2023/04/12 02:36:46;;;;;;;2.92;0.80;;;19.30;52.50;;;;;;5092844;28;20044;-63
2023/04/12 02:39:11;;;;;;;2.08;0.65;;;19.30;52.50;;;;;;5093085;28;20044;-63
2023/04/12 02:41:37;;;;;;;3.75;0.93;;;19.40;52.60;;;;;;5094252;28;20047;-63
2023/04/12 02:44:02;;;;;;;2.67;0.70;;;19.40;52.60;;;;;;5093468;28;20044;-63
2023/04/12 02:46:28;;;;;;;1.33;0.70;;;19.40;52.60;;;;;;5093278;28;20043;-63
2023/04/12 02:48:54;;;;;;;1.35;0.60;;;19.40;52.50;;;;;;5094044;28;20525;-63
2023/04/12 02:51:19;;;;;;;2.17;0.90;;;19.40;52.60;;;;;;5093716;28;20475;-63
2023/04/12 02:53:45;;;;;;;2.47;0.68;;;19.40;52.50;;;;;;5093235;28;20111;-63
2023/04/12 02:56:11;;;;;;;1.95;0.80;;;19.40;52.50;;;;;;5092479;28;20040;-64
2023/04/12 02:58:37;;;;;;;2.15;0.63;;;19.40;52.50;;;;;;5092063;28;20040;-63
2023/04/12 03:01:06;;;;;;;3.20;0.80;;;19.40;52.60;;;;;;5093290;28;20522;-63
2023/04/12 03:03:33;;;;;;;3.08;0.70;;;19.40;52.50;;;;;;5092198;28;20157;-63
2023/04/12 03:05:58;;;;;;;1.95;0.70;;;19.40;52.50;;;;;;5092628;28;20557;-63
2023/04/12 03:08:24;;;;;;;2.40;0.80;;;19.50;52.60;;;;;;5093693;28;20040;-63
2023/04/12 03:10:50;;;;;;;2.30;0.82;;;19.50;52.50;;;;;;5093385;28;20123;-63
2023/04/12 03:13:15;;;;;;;2.28;0.90;;;19.50;52.60;;;;;;5092635;28;20032;-63
2023/04/12 03:15:42;;;;;;;2.65;0.80;;;19.50;52.60;;;;;;5092310;28;20526;-63
2023/04/12 03:18:08;;;;;;;2.80;0.85;;;19.50;52.70;;;;;;5093274;28;20056;-63
2023/04/12 03:20:33;;;;;;;1.75;0.70;;;19.50;52.70;;;;;;5092546;28;20038;-63
2023/04/12 03:23:00;;;;;;;2.28;0.95;;;19.50;52.70;;;;;;5092807;28;20113;-63
2023/04/12 03:25:26;;;;;;;1.52;0.60;;;19.50;52.70;;;;;;5093243;28;20044;-64
2023/04/12 03:27:51;;;;;;;2.53;0.60;;;19.50;52.70;;;;;;5092505;28;20059;-63
2023/04/12 03:30:17;;;;;;;2.55;0.75;;;19.60;52.70;;;;;;5091401;28;20113;-63
2023/04/12 03:32:43;;;;;;;1.63;0.60;;;19.60;52.80;;;;;;5093264;28;20080;-63
2023/04/12 03:35:09;;;;;;;2.40;0.65;;;19.60;52.70;;;;;;5092018;28;20035;-63
2023/04/12 03:37:34;;;;;;;2.55;0.77;;;19.60;52.70;;;;;;5093303;28;20141;-63
2023/04/12 03:40:00;;;;;;;3.45;0.70;;;19.60;52.70;;;;;;5092884;28;20039;-63
2023/04/12 03:42:27;;;;;;;1.88;0.88;;;19.60;52.70;;;;;;5092535;28;20550;-64
2023/04/12 03:44:52;;;;;;;1.30;0.70;;;19.70;52.80;;;;;;5092943;28;20071;-63
2023/04/12 03:47:18;;;;;;;2.58;0.80;;;19.70;52.80;;;;;;5092522;28;20451;-64
2023/04/12 03:49:44;;;;;;;2.28;0.70;;;19.70;52.80;;;;;;5090732;28;20091;-63
2023/04/12 03:52:09;;;;;;;1.85;0.70;;;19.70;52.80;;;;;;5092878;28;20040;-63
2023/04/12 03:54:35;;;;;;;2.42;0.70;;;19.70;52.80;;;;;;5093044;28;20467;-63
2023/04/12 03:57:00;;;;;;;2.03;0.65;;;19.70;52.80;;;;;;5091757;28;20044;-63
2023/04/12 03:59:27;;;;;;;1.58;0.70;;;19.80;52.90;;;;;;5093040;28;20040;-63
2023/04/12 04:01:54;;;;;;;2.10;0.70;;;19.80;52.80;;;;;;5092363;28;20123;-63
2023/04/12 04:04:20;;;;;;;1.40;0.65;;;19.80;52.80;;;;;;5094320;28;20051;-63
2023/04/12 04:06:46;;;;;;;2.55;0.60;;;19.80;52.80;;;;;;5095043;28;20040;-63
2023/04/12 04:09:11;;;;;;;1.90;0.77;;;19.80;52.80;;;;;;5094824;28;20094;-63
2023/04/12 04:11:37;;;;;;;2.38;0.75;;;19.80;52.80;;;;;;5095873;28;20040;-64
2023/04/12 04:14:02;;;;;;;2.55;0.70;;;19.80;52.80;;;;;;5095251;28;20047;-63
2023/04/12 04:16:29;;;;;;;1.65;0.70;;;19.90;52.90;;;;;;5096162;28;20043;-63
2023/04/12 04:18:55;;;;;;;2.80;0.93;;;19.90;52.90;;;;;;5096728;28;20062;-64
2023/04/12 04:21:21;;;;;;;2.85;0.70;;;19.90;52.90;;;;;;5096468;28;20495;-64
2023/04/12 04:23:47;;;;;;;2.70;0.63;;;19.90;52.90;;;;;;5095903;28;20048;-64
2023/04/12 04:26:14;;;;;;;2.17;0.70;;;19.90;52.90;;;;;;5096315;28;20044;-64
2023/04/12 04:28:49;;;;;;;1.70;0.80;;;19.90;52.80;;;;;;5096816;28;20104;-64
2023/04/12 04:31:16;;;;;;;1.58;0.65;;;19.90;52.80;;;;;;5095242;28;20518;-64
2023/04/12 04:33:41;;;;;;;4.07;0.88;;;19.90;52.80;;;;;;5096457;28;20373;-64
2023/04/12 04:36:08;;;;;;;1.70;0.60;;;19.90;52.80;;;;;;5095965;28;20089;-64
2023/04/12 04:38:33;;;;;;;1.73;0.57;;;19.90;52.80;;;;;;5095337;28;20479;-64
2023/04/12 04:41:01;;;;;;;2.03;0.70;;;20.00;52.90;;;;;;5094647;28;20040;-64
2023/04/12 04:43:29;;;;;;;1.20;0.50;;;20.00;52.90;;;;;;5096286;28;20040;-64
2023/04/12 04:45:55;;;;;;;1.73;0.52;;;20.00;52.90;;;;;;5095169;28;20546;-63
2023/04/12 04:48:21;;;;;;;2.17;0.60;;;20.00;52.90;;;;;;5095405;28;20090;-63
2023/04/12 04:50:47;;;;;;;2.38;0.68;;;20.00;52.80;;;;;;5095937;28;20048;-63
2023/04/12 04:53:12;;;;;;;2.33;0.70;;;20.00;52.80;;;;;;5094971;28;20052;-64
2023/04/12 04:55:38;;;;;;;1.13;0.52;;;20.00;52.80;;;;;;5096337;28;20148;-63
2023/04/12 04:58:07;;;;;;;2.90;0.55;;;20.00;52.80;;;;;;5095594;28;20040;-63
2023/04/12 05:00:34;;;;;;;2.03;0.57;;;20.00;52.80;;;;;;5095184;28;20076;-63
2023/04/12 05:03:00;;;;;;;2.37;0.60;;;20.00;52.80;;;;;;5095864;28;20062;-63
2023/04/12 05:05:25;;;;;;;1.35;0.57;;;20.10;52.90;;;;;;5095203;28;20778;-63
2023/04/12 05:07:51;;;;;;;3.03;0.60;;;20.10;52.90;;;;;;5095776;28;20395;-64
2023/04/12 05:10:16;;;;;;;2.03;0.70;;;20.10;52.90;;;;;;5095701;28;20063;-64
2023/04/12 05:12:42;;;;;;;1.45;0.50;;;20.10;52.90;;;;;;5094932;28;20048;-64
2023/04/12 05:15:09;;;;;;;1.25;0.57;;;20.10;52.90;;;;;;5095246;28;20128;-63
2023/04/12 05:17:35;;;;;;;2.28;0.73;;;20.10;52.90;;;;;;5095992;28;20047;-64
2023/04/12 05:20:00;;;;;;;1.42;0.60;;;20.10;52.90;;;;;;5094322;28;20040;-64
2023/04/12 05:22:28;;;;;;;1.65;0.60;;;20.10;52.90;;;;;;5094797;28;20135;-64
2023/04/12 05:24:54;;;;;;;2.88;0.90;;;20.10;52.90;;;;;;5095520;28;20072;-64
2023/04/12 05:27:20;;;;;;;3.13;0.68;;;20.10;52.90;;;;;;5094637;28;20044;-64
2023/04/12 05:29:46;;;;;;;2.03;0.57;;;20.10;52.90;;;;;;5095578;28;20039;-64
2023/04/12 05:32:11;;;;;;;2.22;0.60;;;20.10;52.90;;;;;;5095329;28;20464;-64
2023/04/12 05:34:37;;;;;;;2.50;0.50;;;20.10;52.80;;;;;;5094396;28;20380;-64
2023/04/12 05:37:03;;;;;;;1.58;0.50;;;20.10;52.80;;;;;;5094744;28;20131;-66
2023/04/12 05:39:29;;;;;;;3.60;0.75;;;20.10;52.80;;;;;;5094204;28;20402;-63
2023/04/12 05:41:54;;;;;;;1.83;0.60;;;20.10;52.80;;;;;;5093621;28;20463;-64
2023/04/12 05:44:20;;;;;;;6.93;0.80;;;20.20;52.90;;;;;;5094299;28;20131;-64
2023/04/12 05:46:46;;;;;;;4.47;0.50;;;20.20;52.90;;;;;;5094292;28;20500;-64
2023/04/12 05:49:11;;;;;;;6.95;0.65;;;20.20;52.90;;;;;;5075657;28;20449;-64
2023/04/12 05:51:37;;;;;;;6.65;0.85;;;20.20;52.90;;;;;;5074563;28;20037;-64
2023/04/12 05:54:05;;;;;;;4.05;0.70;;;20.20;52.90;;;;;;5075810;28;20032;-63
2023/04/12 05:56:31;;;;;;;1.75;0.50;;;20.20;53.00;;;;;;5094357;28;20036;-65
2023/04/12 05:58:57;;;;;;;2.80;0.70;;;20.20;53.00;;;;;;5094735;28;20100;-64
2023/04/12 06:01:30;;;;;;;2.08;0.80;;;20.20;53.00;;;;;;5093817;28;20174;-64
2023/04/12 06:04:01;;;;;;;3.72;0.85;;;20.20;53.00;;;;;;5093216;28;20123;-64
2023/04/12 06:06:29;;;;;;;2.05;0.60;;;20.20;53.70;;;;;;5094540;28;20476;-64
2023/04/12 06:08:58;;;;;;;3.47;0.77;;;20.30;53.10;;;;;;5092541;28;20101;-64
2023/04/12 06:11:24;;;;;;;3.72;0.50;;;20.20;53.10;;;;;;5092108;28;20047;-64
2023/04/12 06:13:50;;;;;;;7.80;0.60;;;20.20;53.10;;;;;;5094285;28;20036;-64
2023/04/12 06:16:15;;;;;;;2.60;0.60;;;20.20;53.20;;;;;;5098784;28;20060;-65
2023/04/12 06:18:41;;;;;;;1.95;0.50;;;20.20;53.30;;;;;;5074114;28;20051;-64
2023/04/12 06:21:07;;;;;;;5.32;0.60;;;20.30;53.30;;;;;;5089032;28;20057;-63
2023/04/12 06:23:32;;;;;;;2.33;0.60;;;20.20;53.30;;;;;;5073194;28;20044;-63
2023/04/12 06:25:58;;;;;;;1.75;0.50;;;20.20;53.50;;;;;;5073057;28;20044;-64
2023/04/12 06:28:23;;;;;;;4.13;0.80;;;20.20;53.60;;;;;;5089778;28;20068;-64
2023/04/12 06:30:49;;;;;;;2.10;0.60;;;20.30;53.70;;;;;;5073195;28;20431;-64
2023/04/12 06:33:14;;;;;;;2.67;0.70;;;20.30;54.60;;;;;;5089349;28;20042;-65
2023/04/12 06:35:40;;;;;;;1.98;0.50;;;20.30;53.90;;;;;;5073755;28;20058;-65
2023/04/12 06:38:06;;;;;;;4.43;0.90;;;20.30;53.90;;;;;;5072408;28;20079;-65
2023/04/12 06:40:31;;;;;;;3.92;0.70;;;20.30;54.00;;;;;;5073963;28;20044;-65
2023/04/12 06:42:57;;;;;;;2.88;0.77;;;20.30;54.00;;;;;;5092417;28;20037;-64
2023/04/12 06:45:22;;;;;;;3.65;0.63;;;20.30;54.00;;;;;;5092882;28;20032;-65
2023/04/12 06:47:48;;;;;;;3.95;0.60;;;20.30;54.10;;;;;;5093491;28;20543;-65
2023/04/12 06:50:13;;;;;;;4.28;1.02;;;20.30;54.20;;;;;;5091688;28;20102;-65
2023/04/12 06:52:39;;;;;;;2.38;0.65;;;20.30;54.20;;;;;;5090589;28;20047;-63
2023/04/12 06:55:06;;;;;;;3.28;0.50;;;20.30;54.30;;;;;;5093231;28;20040;-65
2023/04/12 06:57:31;;;;;;;2.30;0.60;;;20.30;54.30;;;;;;5093219;28;20079;-64
2023/04/12 06:59:57;;;;;;;4.07;0.70;;;20.40;54.30;;;;;;5092237;28;20071;-65
2023/04/12 07:02:22;;;;;;;3.55;0.70;;;20.40;54.40;;;;;;5093469;28;20055;-65
2023/04/12 07:04:53;;;;;;;3.28;0.77;;;20.40;54.40;;;;;;5091054;28;20032;-65
2023/04/12 07:07:19;;;;;;;3.05;0.60;;;20.40;54.50;;;;;;5092649;28;20089;-65
2023/04/12 07:09:46;;;;;;;1.60;0.55;;;20.40;54.50;;;;;;5100262;28;20506;-65
2023/04/12 07:12:12;;;;;;;1.50;0.43;;;20.40;54.60;;;;;;5090785;28;20083;-64
2023/04/12 07:14:38;;;;;;;3.72;0.55;;;20.40;54.60;;;;;;5109107;28;20442;-65
2023/04/12 07:17:04;;;;;;;2.53;0.77;;;20.40;54.60;;;;;;5092027;28;20040;-63
2023/04/12 07:19:30;;;;;;;6.15;0.80;;;20.40;54.60;;;;;;5091677;28;20463;-63
2023/04/12 07:21:55;;;;;;;3.63;0.80;;;20.40;54.70;;;;;;5090991;28;20056;-63
2023/04/12 07:24:21;;;;;;;4.30;0.60;;;20.40;54.80;;;;;;5092875;28;20054;-64
2023/04/12 07:26:47;;;;;;;3.60;0.75;;;20.40;54.80;;;;;;5091045;28;20047;-63
2023/04/12 07:29:12;;;;;;;4.93;0.77;;;20.40;54.90;;;;;;5091764;28;20051;-63
2023/04/12 07:31:38;;;;;;;2.45;0.60;;;20.40;54.90;;;;;;5093098;28;20126;-63
2023/04/12 07:34:03;;;;;;;2.22;0.65;;;20.40;54.90;;;;;;5090963;28;20040;-63
2023/04/12 07:36:30;;;;;;;3.10;0.47;;;20.40;54.90;;;;;;5091862;28;20043;-63
2023/04/12 07:38:55;;;;;;;4.35;0.60;;;20.40;54.90;;;;;;5090601;28;20048;-65
2023/04/12 07:41:21;;;;;;;1.08;0.43;;;20.40;54.90;;;;;;5092351;28;20509;-65
2023/04/12 07:43:47;;;;;;;3.38;0.60;;;20.40;54.90;;;;;;5092641;28;20040;-65
2023/04/12 07:46:13;;;;;;;2.85;0.68;;;20.40;54.90;;;;;;5091606;28;20402;-64
2023/04/12 07:48:38;;;;;;;4.40;0.60;;;20.40;54.80;;;;;;5091453;28;20123;-64
2023/04/12 07:51:04;;;;;;;2.88;0.63;;;20.40;54.80;;;;;;5091715;28;20406;-64
2023/04/12 07:53:30;;;;;;;3.15;0.80;;;20.40;54.70;;;;;;5092167;28;20460;-62
2023/04/12 07:55:56;;;;;;;3.75;0.60;;;20.40;54.70;;;;;;5090396;28;20127;-63
2023/04/12 07:58:22;;;;;;;3.42;0.50;;;20.40;54.60;;;;;;5092354;28;20109;-63
2023/04/12 08:00:48;;;;;;;2.92;0.60;;;20.40;54.60;;;;;;5092813;28;20059;-63
2023/04/12 08:03:14;;;;;;;2.30;0.52;;;20.30;54.60;;;;;;5090351;28;20044;-64
2023/04/12 08:05:40;;;;;;;3.28;0.75;;;20.30;54.70;;;;;;5090346;28;20048;-61
2023/04/12 08:08:08;;;;;;;2.72;0.60;;;20.30;54.60;;;;;;5091075;28;20050;-62
2023/04/12 08:10:34;;;;;;;1.73;0.45;;;20.30;54.70;;;;;;5090914;28;20032;-61
2023/04/12 08:13:00;;;;;;;3.17;1.02;;;20.30;54.80;;;;;;5091817;28;20097;-61
2023/04/12 08:15:25;;;;;;;2.28;0.70;;;20.30;54.90;;;;;;5091134;28;20098;-61
2023/04/12 08:17:51;;;;;;;3.63;0.65;;;20.30;55.10;;;;;;5088312;28;20043;-61
2023/04/12 08:20:16;;;;;;;2.80;0.68;;;20.30;55.00;;;;;;5091107;28;20487;-63
2023/04/12 08:22:45;;;;;;;4.75;0.82;;;20.30;55.10;;;;;;5090706;28;20044;-62
2023/04/12 08:25:10;;;;;;;;;;;20.30;55.10;;;;;;5090429;28;20044;-62
2023/04/12 08:27:37;;;;;;;4.80;0.60;;;20.30;54.90;;;;;;5091335;28;19973;-62
2023/04/12 08:30:03;;;;;;;1.58;0.40;;;20.30;55.00;;;;;;5090657;28;20047;-63
2023/04/12 08:32:29;;;;;;;5.53;0.88;;;20.30;55.00;;;;;;5091684;28;20047;-62
2023/04/12 08:34:55;;;;;;;6.80;0.85;;;20.30;55.00;;;;;;5091407;28;20131;-63
2023/04/12 08:37:20;;;;;;;4.95;0.82;;;20.30;55.00;;;;;;5105396;28;20126;-62
2023/04/12 08:39:46;;;;;;;3.85;0.70;;;20.30;55.00;;;;;;5112500;28;20177;-62
2023/04/12 08:42:12;;;;;;;5.75;0.90;;;20.30;55.00;;;;;;5111981;28;20039;-62
2023/04/12 08:44:38;;;;;;;3.83;0.82;;;20.30;55.00;;;;;;5093289;28;20051;-62
2023/04/12 08:47:04;;;;;;;3.08;0.80;;;20.20;55.00;;;;;;5111980;28;20046;-62
2023/04/12 08:49:31;;;;;;;1.55;0.80;;;20.20;55.00;;;;;;5093450;28;20044;-62
2023/04/12 08:52:02;;;;;;;2.65;0.80;;;20.30;55.00;;;;;;5094451;28;20043;-61
2023/04/12 08:54:28;;;;;;;3.70;0.80;;;20.20;55.20;;;;;;5095430;28;20506;-61
2023/04/12 08:57:00;;;;;;;2.53;0.80;;;20.20;55.10;;;;;;5094003;28;20044;-61
2023/04/12 08:59:28;;;;;;;2.78;0.80;;;20.20;55.10;;;;;;5092594;28;20369;-61
2023/04/12 09:01:54;;;;;;;3.67;1.00;;;20.20;55.10;;;;;;5095409;28;20036;-62
2023/04/12 09:04:20;;;;;;;2.20;0.63;;;20.20;55.10;;;;;;5094848;28;20537;-61
2023/04/12 09:06:46;;;;;;;2.50;0.85;;;20.20;55.10;;;;;;5093505;28;20454;-61
2023/04/12 09:09:11;;;;;;;1.55;0.70;;;20.20;55.10;;;;;;5094232;28;20044;-62
2023/04/12 09:11:37;;;;;;;4.95;0.90;;;20.20;55.20;;;;;;5094000;28;20093;-60
2023/04/12 09:14:02;;;;;;;4.28;0.90;;;20.20;55.20;;;;;;5094629;28;20554;-61
2023/04/12 09:16:39;;;;;;;3.13;0.98;;;20.20;55.20;;;;;;5099573;28;20098;-62
2023/04/12 09:19:05;;;;;;;2.85;0.88;;;20.20;55.30;;;;;;5114778;28;20043;-61
2023/04/12 09:21:33;;;;;;;3.15;1.13;;;20.20;55.30;;;;;;5115198;28;20415;-61
2023/04/12 09:24:12;;;;;;;3.05;1.10;;;20.20;55.30;;;;;;5115000;28;20055;-62
2023/04/12 09:26:37;;;;;;;;;;;20.20;55.20;;;;;;5113804;28;20062;-65
2023/04/12 09:29:03;;;;;;;3.85;1.05;;;20.10;55.00;;;;;;5114179;28;20010;-62
2023/04/12 09:31:29;;;;;;;2.97;1.00;;;20.10;55.10;;;;;;5114966;28;20364;-62
2023/04/12 09:34:21;;;;;;;2.40;0.90;;;20.10;55.10;;;;;;5114211;28;20058;-62
2023/04/12 09:36:47;;;;;;;4.53;0.90;;;20.10;55.20;;;;;;5111064;28;20048;-62
2023/04/12 09:39:13;;;;;;;3.50;1.50;;;20.10;55.90;;;;;;5115288;28;20092;-62
2023/04/12 09:41:38;;;;;;;4.22;0.90;;;20.20;55.50;;;;;;5101653;28;20038;-61
2023/04/12 09:44:04;;;;;;;3.70;1.15;;;20.10;55.50;;;;;;5093656;28;20121;-62
2023/04/12 09:46:30;;;;;;;5.50;1.30;;;20.10;55.60;;;;;;5094383;28;20131;-62
2023/04/12 09:48:59;;;;;;;3.88;0.98;;;20.10;55.80;;;;;;5092348;28;20402;-61
2023/04/12 09:51:27;;;;;;;2.38;0.88;;;20.10;55.80;;;;;;5092711;28;20046;-60
2023/04/12 09:53:55;;;;;;;5.20;1.10;;;20.10;55.80;;;;;;5091944;28;20044;-60
2023/04/12 09:56:21;;;;;;;2.88;1.15;;;20.10;55.90;;;;;;5094003;28;20047;-60
2023/04/12 09:58:49;;;;;;;3.30;0.88;;;20.10;56.00;;;;;;5094079;28;20470;-60
2023/04/12 10:01:15;;;;;;;3.70;0.80;;;20.10;56.00;;;;;;5091037;28;20051;-60
2023/04/12 10:03:41;;;;;;;4.10;0.88;;;20.10;56.10;;;;;;5076115;28;20047;-61
2023/04/12 10:06:07;;;;;;;3.17;1.35;;;20.10;56.20;;;;;;5092717;28;20408;-61
2023/04/12 10:08:35;;;;;;;5.03;1.02;;;20.20;56.20;;;;;;5075047;28;20044;-60
2023/04/12 10:11:01;;;;;;;4.00;0.90;;;20.10;56.20;;;;;;5075957;28;20048;-60
2023/04/12 10:13:27;;;;;;;2.53;1.10;;;20.10;56.30;;;;;;5112211;28;20407;-60
2023/04/12 10:15:53;;;;;;;3.35;0.80;;;20.10;56.20;;;;;;5113818;28;20529;-60
2023/04/12 10:18:18;;;;;;;4.18;1.10;;;20.20;56.30;;;;;;5112557;28;20047;-61
2023/04/12 10:20:45;;;;;;;6.28;1.05;;;20.20;56.30;;;;;;5112829;28;20043;-62
2023/04/12 10:23:11;;;;;;;1.77;0.85;;;20.20;56.20;;;;;;5113267;28;20047;-60
2023/04/12 10:25:38;;;;;;;3.85;1.13;;;20.20;56.30;;;;;;5113080;28;20043;-61
2023/04/12 10:28:17;;;;;;;1.67;0.80;;;20.20;56.40;;;;;;5113667;28;20047;-61
2023/04/12 10:30:43;;;;;;;3.83;0.98;;;20.20;56.40;;;;;;5092852;28;20080;-63
2023/04/12 10:33:09;;;;;;;2.47;1.00;;;20.20;56.40;;;;;;5093200;28;20071;-63
2023/04/12 10:35:58;;;;;;;1.95;1.00;;;20.20;56.40;;;;;;5093731;28;20048;-63
2023/04/12 10:38:25;;;;;;;1.85;0.80;;;20.20;56.50;;;;;;5093850;28;20111;-63
2023/04/12 10:41:16;;;;;;;2.08;0.80;;;20.20;56.50;;;;;;5093713;28;20036;-63
2023/04/12 10:43:48;;;;;;;3.75;1.00;;;20.20;56.50;;;;;;5092967;28;20040;-63
2023/04/12 10:46:36;;;;;;;4.00;1.10;;;20.30;56.50;;;;;;5092230;28;20125;-63
2023/04/12 10:49:14;;;;;;;2.38;1.02;;;20.30;56.50;;;;;;5093956;28;20043;-64
2023/04/12 10:51:58;;;;;;;2.88;0.80;;;20.30;56.60;;;;;;5093121;28;20165;-64
2023/04/12 10:54:24;;;;;;;2.50;1.10;;;20.30;56.50;;;;;;5078074;28;20500;-65
2023/04/12 10:56:50;;;;;;;4.22;1.20;;;20.30;56.50;;;;;;5092310;28;20127;-64
2023/04/12 10:59:15;;;;;;;4.97;1.10;;;20.30;56.50;;;;;;5092269;28;20039;-61
2023/04/12 11:02:01;;;;;;;2.83;1.00;;;20.30;56.60;;;;;;5093296;28;20084;-63
2023/04/12 11:04:27;;;;;;;4.10;1.25;;;20.30;56.60;;;;;;5089703;28;20043;-64
2023/04/12 11:06:52;;;;;;;2.85;0.98;;;20.30;56.60;;;;;;5093222;28;20403;-63
2023/04/12 11:09:24;;;;;;;3.38;1.02;;;20.30;56.60;;;;;;5091451;28;20407;-65
2023/04/12 11:11:50;;;;;;;3.35;1.00;;;20.30;56.70;;;;;;5092083;28;20376;-64
2023/04/12 11:14:16;;;;;;;4.32;1.10;;;20.30;56.70;;;;;;5092833;28;20036;-65
2023/04/12 11:17:07;;;;;;;2.13;0.80;;;20.40;57.50;;;;;;5092982;28;20032;-65
2023/04/12 11:19:33;;;;;;;3.83;0.88;;;20.40;56.80;;;;;;5090275;28;20083;-65
2023/04/12 11:22:06;;;;;;;3.08;1.10;;;20.30;56.80;;;;;;5092184;28;20538;-65
2023/04/12 11:24:32;;;;;;;2.58;1.00;;;20.30;56.90;;;;;;5091730;28;20135;-64
2023/04/12 11:26:58;;;;;;;2.40;0.80;;;20.40;56.90;;;;;;5090386;28;20443;-64
2023/04/12 11:29:26;;;;;;;1.88;0.85;;;20.40;56.90;;;;;;5091560;28;20050;-64
2023/04/12 11:31:52;;;;;;;4.63;1.05;;;20.40;57.00;;;;;;5090963;28;20058;-63
2023/04/12 11:34:18;;;;;;;2.47;1.05;;;20.40;57.10;;;;;;5076690;28;20036;-62
2023/04/12 11:36:53;;;;;;;2.25;0.90;;;20.40;57.10;;;;;;5092080;28;20051;-63
2023/04/12 11:39:20;;;;;;;2.90;1.05;;;20.40;57.20;;;;;;5089937;28;20036;-64
2023/04/12 11:41:46;;;;;;;2.25;1.00;;;20.40;57.10;;;;;;5092406;28;20044;-62
2023/04/12 11:44:12;;;;;;;2.45;0.90;;;20.50;57.20;;;;;;5089459;28;20079;-63
2023/04/12 11:46:37;;;;;;;2.65;0.80;;;20.40;57.20;;;;;;5091700;28;20040;-63
2023/04/12 11:49:03;;;;;;;4.18;0.90;;;20.50;57.20;;;;;;5090786;28;20396;-62
2023/04/12 11:51:29;;;;;;;3.15;0.93;;;20.50;57.20;;;;;;5091044;28;20388;-62
2023/04/12 11:53:56;;;;;;;1.83;1.02;;;20.50;57.20;;;;;;5091677;28;20071;-64
2023/04/12 11:56:22;;;;;;;2.83;1.00;;;20.50;57.20;;;;;;5092364;28;20044;-62
2023/04/12 11:58:48;;;;;;;3.25;1.15;;;20.50;57.30;;;;;;5092024;28;20024;-62
2023/04/12 12:01:14;;;;;;;2.17;0.70;;;20.50;57.20;;;;;;5088120;28;20794;-61
2023/04/12 12:03:40;;;;;;;2.78;0.90;;;20.50;57.20;;;;;;5073694;28;20040;-62
2023/04/12 12:06:09;;;;;;;10.00;1.42;;;20.50;57.20;;;;;;5073152;28;20090;-62
2023/04/12 12:08:35;;;;;;;2.88;1.10;;;20.50;57.20;;;;;;5083165;28;20043;-62
2023/04/12 12:11:01;;;;;;;4.15;1.00;;;20.50;57.10;;;;;;5073845;28;20043;-62
2023/04/12 12:13:26;;;;;;;2.70;0.90;;;20.50;57.20;;;;;;5091327;28;20040;-64
2023/04/12 12:15:52;;;;;;;3.88;1.10;;;20.50;57.20;;;;;;5089832;28;20040;-62
2023/04/12 12:18:17;;;;;;;3.15;0.95;;;20.50;57.30;;;;;;5091829;28;20036;-62
2023/04/12 12:20:50;;;;;;;5.68;1.00;;;20.50;57.30;;;;;;5091558;28;20043;-63
2023/04/12 12:23:31;;;;;;;2.50;0.90;;;20.60;57.50;;;;;;5079534;28;20105;-63
2023/04/12 12:25:57;;;;;;;4.38;1.00;;;20.60;57.50;;;;;;5094849;28;20054;-63
2023/04/12 12:28:23;;;;;;;2.28;0.85;;;20.60;57.50;;;;;;5093094;28;20565;-64
2023/04/12 12:30:58;;;;;;;5.53;0.93;;;20.60;57.60;;;;;;5096505;28;20563;-64
2023/04/12 12:33:24;;;;;;;3.33;1.00;;;20.60;57.60;;;;;;5094169;28;20506;-64
2023/04/12 12:35:56;;;;;;;3.60;0.85;;;20.60;57.70;;;;;;5095645;28;20055;-65
2023/04/12 12:38:22;;;;;;;4.10;1.00;;;20.60;57.70;;;;;;5096381;28;20044;-64
2023/04/12 12:40:47;;;;;;;2.97;1.30;;;20.60;57.50;;;;;;5096560;28;20097;-64
2023/04/12 12:43:19;;;;;;;3.90;0.98;;;20.60;57.50;;;;;;5094430;28;20040;-64
2023/04/12 12:45:45;;;;;;;2.22;0.80;;;20.60;57.50;;;;;;5096442;28;20101;-64
2023/04/12 12:48:11;;;;;;;2.33;0.80;;;20.60;57.50;;;;;;5095774;28;20074;-64
2023/04/12 12:50:38;;;;;;;2.72;0.95;;;20.60;57.50;;;;;;5095107;28;20456;-64